sensor_id;sensor_type;location;lat;lon;timestamp;pressure;altitude;pressure_sealevel;temperature;humidity
28008;BME280;15333;50.010;20.020;2022-10-16T00:01:46;98969.72;;;12.82;85.67
28008;BME280;15333;50.010;20.020;2022-10-16T00:04:47;98977.41;;;12.87;83.50
28008;BME280;15333;50.010;20.020;2022-10-16T00:07:48;98976.53;;;12.98;82.05
28008;BME280;15333;50.010;20.020;2022-10-16T00:10:49;98974.31;;;13.14;81.93
28008;BME280;15333;50.010;20.020;2022-10-16T00:13:53;98972.81;;;13.10;82.05
28008;BME280;15333;50.010;20.020;2022-10-16T00:16:55;98981.16;;;12.95;84.59
28008;BME280;15333;50.010;20.020;2022-10-16T00:19:55;98981.44;;;12.92;85.61
28008;BME280;15333;50.010;20.020;2022-10-16T00:22:57;98990.97;;;12.85;86.32
28008;BME280;15333;50.010;20.020;2022-10-16T00:26:03;98980.72;;;12.79;87.03
28008;BME280;15333;50.010;20.020;2022-10-16T00:29:06;98980.72;;;12.79;85.08
28008;BME280;15333;50.010;20.020;2022-10-16T00:32:07;98996.59;;;12.82;86.90
28008;BME280;15333;50.010;20.020;2022-10-16T00:35:08;98988.91;;;12.78;86.38
28008;BME280;15333;50.010;20.020;2022-10-16T00:38:09;98996.81;;;12.79;87.24
28008;BME280;15333;50.010;20.020;2022-10-16T00:41:16;98995.84;;;12.80;86.74
28008;BME280;15333;50.010;20.020;2022-10-16T00:47:46;99008.56;;;12.67;89.26
28008;BME280;15333;50.010;20.020;2022-10-16T00:50:50;99004.91;;;12.68;89.59
28008;BME280;15333;50.010;20.020;2022-10-16T00:53:51;99021.38;;;12.75;87.83
28008;BME280;15333;50.010;20.020;2022-10-16T00:56:54;99011.25;;;12.78;86.27
28008;BME280;15333;50.010;20.020;2022-10-16T00:59:56;99012.69;;;12.82;87.41
28008;BME280;15333;50.010;20.020;2022-10-16T01:03:00;99005.03;;;12.78;88.63
28008;BME280;15333;50.010;20.020;2022-10-16T01:09:20;99013.72;;;12.70;90.04
28008;BME280;15333;50.010;20.020;2022-10-16T01:12:39;99004.91;;;12.68;90.45
28008;BME280;15333;50.010;20.020;2022-10-16T01:16:49;99008.56;;;12.67;90.29
28008;BME280;15333;50.010;20.020;2022-10-16T01:30:10;99011.25;;;12.78;88.84
28008;BME280;15333;50.010;20.020;2022-10-16T01:33:20;99007.84;;;12.76;89.93
28008;BME280;15333;50.010;20.020;2022-10-16T01:36:26;99014.91;;;12.77;89.80
28008;BME280;15333;50.010;20.020;2022-10-16T01:39:32;99013.22;;;12.76;90.49
28008;BME280;15333;50.010;20.020;2022-10-16T01:42:41;99015.03;;;12.76;90.40
28008;BME280;15333;50.010;20.020;2022-10-16T01:45:44;99014.41;;;12.72;91.42
28008;BME280;15333;50.010;20.020;2022-10-16T01:48:48;99022.47;;;12.72;92.28
28008;BME280;15333;50.010;20.020;2022-10-16T01:51:52;99022.47;;;12.72;92.42
28008;BME280;15333;50.010;20.020;2022-10-16T01:54:56;99026.16;;;12.71;92.21
28008;BME280;15333;50.010;20.020;2022-10-16T01:57:59;99031.03;;;12.66;91.57
28008;BME280;15333;50.010;20.020;2022-10-16T02:01:04;99031.53;;;12.71;91.64
28008;BME280;15333;50.010;20.020;2022-10-16T02:04:22;99032.13;;;12.75;91.06
28008;BME280;15333;50.010;20.020;2022-10-16T02:07:25;99033.22;;;12.72;91.98
28008;BME280;15333;50.010;20.020;2022-10-16T02:10:26;99031.75;;;12.68;92.11
28008;BME280;15333;50.010;20.020;2022-10-16T02:14:04;99035.91;;;12.61;93.12
28008;BME280;15333;50.010;20.020;2022-10-16T02:17:14;99036.41;;;12.55;93.62
28008;BME280;15333;50.010;20.020;2022-10-16T02:20:16;99031.78;;;12.57;94.04
28008;BME280;15333;50.010;20.020;2022-10-16T02:23:24;99041.53;;;12.58;93.51
28008;BME280;15333;50.010;20.020;2022-10-16T02:26:31;99039.56;;;12.60;93.13
28008;BME280;15333;50.010;20.020;2022-10-16T02:29:40;99029.56;;;12.62;93.34
28008;BME280;15333;50.010;20.020;2022-10-16T02:32:46;99027.75;;;12.63;93.25
28008;BME280;15333;50.010;20.020;2022-10-16T02:35:49;99034.94;;;12.62;92.93
28008;BME280;15333;50.010;20.020;2022-10-16T02:38:52;99026.63;;;12.65;92.70
28008;BME280;15333;50.010;20.020;2022-10-16T02:41:53;99031.53;;;12.71;91.38
28008;BME280;15333;50.010;20.020;2022-10-16T02:44:54;99032.75;;;12.78;88.03
28008;BME280;15333;50.010;20.020;2022-10-16T02:47:55;99033.69;;;12.88;86.86
28008;BME280;15333;50.010;20.020;2022-10-16T02:50:56;99038.09;;;12.89;86.44
28008;BME280;15333;50.010;20.020;2022-10-16T02:53:57;99028.59;;;12.85;86.23
28008;BME280;15333;50.010;20.020;2022-10-16T02:56:58;99023.22;;;12.85;85.40
28008;BME280;15333;50.010;20.020;2022-10-16T02:59:59;99028.47;;;12.76;86.58
28008;BME280;15333;50.010;20.020;2022-10-16T03:03:00;99035.44;;;12.67;87.14
28008;BME280;15333;50.010;20.020;2022-10-16T03:06:01;99042.38;;;12.59;88.71
28008;BME280;15333;50.010;20.020;2022-10-16T03:09:02;99047.38;;;12.52;89.46
28008;BME280;15333;50.010;20.020;2022-10-16T03:12:03;99039.06;;;12.44;89.41
28008;BME280;15333;50.010;20.020;2022-10-16T03:15:05;99035.16;;;12.37;90.83
28008;BME280;15333;50.010;20.020;2022-10-16T03:18:07;99034.69;;;12.32;91.40
28008;BME280;15333;50.010;20.020;2022-10-16T03:21:08;99035.78;;;12.29;92.38
28008;BME280;15333;50.010;20.020;2022-10-16T03:24:09;99035.19;;;12.26;92.53
28008;BME280;15333;50.010;20.020;2022-10-16T03:27:10;99033.47;;;12.25;90.87
28008;BME280;15333;50.010;20.020;2022-10-16T03:30:11;99039.56;;;12.27;90.63
28008;BME280;15333;50.010;20.020;2022-10-16T03:33:12;99043.44;;;12.23;92.10
28008;BME280;15333;50.010;20.020;2022-10-16T03:36:13;99053.69;;;12.18;92.32
28008;BME280;15333;50.010;20.020;2022-10-16T03:39:14;99050.06;;;12.19;92.25
28008;BME280;15333;50.010;20.020;2022-10-16T03:42:15;99056.88;;;12.23;90.82
28008;BME280;15333;50.010;20.020;2022-10-16T03:45:16;99069.09;;;12.27;90.43
28008;BME280;15333;50.010;20.020;2022-10-16T03:48:18;99064.59;;;12.27;89.64
28008;BME280;15333;50.010;20.020;2022-10-16T03:51:19;99068.84;;;12.30;90.50
28008;BME280;15333;50.010;20.020;2022-10-16T03:54:20;99064.59;;;12.27;91.15
28008;BME280;15333;50.010;20.020;2022-10-16T03:57:22;99073.22;;;12.20;93.04
28008;BME280;15333;50.010;20.020;2022-10-16T04:00:23;99073.06;;;12.10;93.36
28008;BME280;15333;50.010;20.020;2022-10-16T04:03:24;99082.56;;;12.03;93.57
28008;BME280;15333;50.010;20.020;2022-10-16T04:06:25;99091.19;;;11.95;94.27
28008;BME280;15333;50.010;20.020;2022-10-16T04:09:26;99096.81;;;11.92;93.42
28008;BME280;15333;50.010;20.020;2022-10-16T04:12:27;99096.06;;;11.90;93.36
28008;BME280;15333;50.010;20.020;2022-10-16T04:15:28;99096.81;;;11.92;92.25
28008;BME280;15333;50.010;20.020;2022-10-16T04:18:29;99100.47;;;11.91;92.69
28008;BME280;15333;50.010;20.020;2022-10-16T04:21:30;99090.22;;;11.85;93.90
28008;BME280;15333;50.010;20.020;2022-10-16T04:24:31;99092.34;;;11.80;94.33
28008;BME280;15333;50.010;20.020;2022-10-16T04:27:32;99096.44;;;11.73;96.75
28008;BME280;15333;50.010;20.020;2022-10-16T04:30:33;99102.06;;;11.70;96.85
28008;BME280;15333;50.010;20.020;2022-10-16T04:33:34;99099.25;;;11.71;96.98
28008;BME280;15333;50.010;20.020;2022-10-16T04:36:35;99094.75;;;11.72;97.22
28008;BME280;15333;50.010;20.020;2022-10-16T04:39:36;99097.66;;;11.69;97.77
28008;BME280;15333;50.010;20.020;2022-10-16T04:42:36;99093.72;;;11.62;97.10
28008;BME280;15333;50.010;20.020;2022-10-16T04:45:37;99098.59;;;11.57;98.34
28008;BME280;15333;50.010;20.020;2022-10-16T04:48:38;99104.28;;;11.52;98.58
28008;BME280;15333;50.010;20.020;2022-10-16T04:51:39;99106.56;;;11.46;98.32
28008;BME280;15333;50.010;20.020;2022-10-16T04:54:40;99105.28;;;11.38;99.40
28008;BME280;15333;50.010;20.020;2022-10-16T04:57:41;99108.44;;;11.32;99.24
28008;BME280;15333;50.010;20.020;2022-10-16T05:00:42;99116.16;;;11.24;99.63
28008;BME280;15333;50.010;20.020;2022-10-16T05:03:42;99123.50;;;11.22;100.00
28008;BME280;15333;50.010;20.020;2022-10-16T05:06:43;99119.66;;;11.14;100.00
28008;BME280;15333;50.010;20.020;2022-10-16T05:09:44;99110.25;;;11.08;100.00
28008;BME280;15333;50.010;20.020;2022-10-16T05:12:45;99113.88;;;11.07;100.00
28008;BME280;15333;50.010;20.020;2022-10-16T05:15:47;99113.88;;;11.07;100.00
28008;BME280;15333;50.010;20.020;2022-10-16T05:18:48;99113.53;;;11.12;100.00
28008;BME280;15333;50.010;20.020;2022-10-16T05:21:49;99105.91;;;11.18;100.00
28008;BME280;15333;50.010;20.020;2022-10-16T05:24:50;99106.25;;;11.37;100.00
28008;BME280;15333;50.010;20.020;2022-10-16T05:27:51;99113.47;;;11.61;100.00
28008;BME280;15333;50.010;20.020;2022-10-16T05:30:52;99123.69;;;11.56;100.00
28008;BME280;15333;50.010;20.020;2022-10-16T05:34:00;99131.94;;;11.53;100.00
28008;BME280;15333;50.010;20.020;2022-10-16T05:37:01;99133.16;;;11.49;100.00
28008;BME280;15333;50.010;20.020;2022-10-16T05:40:02;99139.66;;;11.57;100.00
28008;BME280;15333;50.010;20.020;2022-10-16T05:43:05;99143.69;;;11.63;100.00
28008;BME280;15333;50.010;20.020;2022-10-16T05:46:06;99134.84;;;11.73;100.00
28008;BME280;15333;50.010;20.020;2022-10-16T05:49:07;99135.06;;;11.83;99.62
28008;BME280;15333;50.010;20.020;2022-10-16T05:52:08;99143.13;;;11.94;98.65
28008;BME280;15333;50.010;20.020;2022-10-16T05:55:08;99136.22;;;12.03;98.08
28008;BME280;15333;50.010;20.020;2022-10-16T05:58:09;99132.00;;;12.11;97.63
28008;BME280;15333;50.010;20.020;2022-10-16T06:01:13;99134.44;;;12.14;97.91
28008;BME280;15333;50.010;20.020;2022-10-16T06:04:15;99129.09;;;12.14;98.06
28008;BME280;15333;50.010;20.020;2022-10-16T06:07:15;99135.69;;;12.22;98.17
28008;BME280;15333;50.010;20.020;2022-10-16T06:10:16;99135.06;;;12.29;97.23
28008;BME280;15333;50.010;20.020;2022-10-16T06:13:17;99136.94;;;12.29;97.86
28008;BME280;15333;50.010;20.020;2022-10-16T06:16:19;99140.38;;;12.42;97.47
28008;BME280;15333;50.010;20.020;2022-10-16T06:19:20;99159.91;;;12.55;96.87
28008;BME280;15333;50.010;20.020;2022-10-16T06:22:21;99153.59;;;13.12;93.40
28008;BME280;15333;50.010;20.020;2022-10-16T06:25:22;99155.34;;;13.35;91.11
28008;BME280;15333;50.010;20.020;2022-10-16T06:28:23;99164.88;;;13.28;90.45
28008;BME280;15333;50.010;20.020;2022-10-16T06:31:25;99170.50;;;13.25;90.30
28008;BME280;15333;50.010;20.020;2022-10-16T06:34:28;99172.69;;;13.31;90.11
28008;BME280;15333;50.010;20.020;2022-10-16T06:37:28;99173.63;;;13.52;88.21
28008;BME280;15333;50.010;20.020;2022-10-16T06:40:29;99183.13;;;13.67;87.62
28008;BME280;15333;50.010;20.020;2022-10-16T06:43:31;99188.00;;;13.85;86.20
28008;BME280;15333;50.010;20.020;2022-10-16T06:46:33;99187.88;;;14.18;85.34
28008;BME280;15333;50.010;20.020;2022-10-16T06:49:34;99202.75;;;14.22;84.33
28008;BME280;15333;50.010;20.020;2022-10-16T06:52:35;99200.28;;;14.41;83.42
28008;BME280;15333;50.010;20.020;2022-10-16T06:55:36;99196.28;;;14.77;82.90
28008;BME280;15333;50.010;20.020;2022-10-16T06:58:37;99197.59;;;15.13;80.05
28008;BME280;15333;50.010;20.020;2022-10-16T07:01:38;99208.13;;;15.47;80.18
28008;BME280;15333;50.010;20.020;2022-10-16T07:04:39;99206.09;;;15.79;77.02
28008;BME280;15333;50.010;20.020;2022-10-16T07:07:40;99202.44;;;15.99;75.14
28008;BME280;15333;50.010;20.020;2022-10-16T07:10:41;99204.19;;;16.20;74.52
28008;BME280;15333;50.010;20.020;2022-10-16T07:13:42;99205.44;;;16.35;74.28
28008;BME280;15333;50.010;20.020;2022-10-16T07:16:44;99208.00;;;16.84;70.10
28008;BME280;15333;50.010;20.020;2022-10-16T07:19:45;99202.25;;;17.07;67.97
28008;BME280;15333;50.010;20.020;2022-10-16T07:22:46;99207.31;;;17.19;70.06
28008;BME280;15333;50.010;20.020;2022-10-16T07:25:53;99206.53;;;17.46;68.76
28008;BME280;15333;50.010;20.020;2022-10-16T07:28:54;99206.31;;;17.57;64.59
28008;BME280;15333;50.010;20.020;2022-10-16T07:31:55;99212.75;;;17.56;64.82
28008;BME280;15333;50.010;20.020;2022-10-16T07:34:56;99207.78;;;17.62;65.38
28008;BME280;15333;50.010;20.020;2022-10-16T07:37:57;99212.88;;;17.65;67.66
28008;BME280;15333;50.010;20.020;2022-10-16T07:40:59;99207.31;;;17.56;67.52
28008;BME280;15333;50.010;20.020;2022-10-16T07:44:00;99212.69;;;17.76;68.22
28008;BME280;15333;50.010;20.020;2022-10-16T07:47:01;99217.19;;;17.85;67.48
28008;BME280;15333;50.010;20.020;2022-10-16T07:50:03;99213.78;;;17.83;64.33
28008;BME280;15333;50.010;20.020;2022-10-16T07:53:04;99215.88;;;17.89;66.15
28008;BME280;15333;50.010;20.020;2022-10-16T07:56:06;99213.97;;;17.99;64.88
28008;BME280;15333;50.010;20.020;2022-10-16T07:59:07;99217.56;;;18.17;64.06
28008;BME280;15333;50.010;20.020;2022-10-16T08:02:08;99226.63;;;18.26;62.53
28008;BME280;15333;50.010;20.020;2022-10-16T08:05:08;99230.88;;;18.11;67.29
28008;BME280;15333;50.010;20.020;2022-10-16T08:08:14;99237.19;;;16.91;71.19
28008;BME280;15333;50.010;20.020;2022-10-16T08:11:15;99242.41;;;17.02;70.89
28008;BME280;15333;50.010;20.020;2022-10-16T08:14:16;99248.00;;;16.91;70.73
28008;BME280;15333;50.010;20.020;2022-10-16T08:17:17;99243.34;;;17.20;69.78
28008;BME280;15333;50.010;20.020;2022-10-16T08:20:18;99248.72;;;17.39;69.54
28008;BME280;15333;50.010;20.020;2022-10-16T08:23:19;99252.06;;;17.14;70.20
28008;BME280;15333;50.010;20.020;2022-10-16T08:26:20;99252.50;;;17.19;70.44
28008;BME280;15333;50.010;20.020;2022-10-16T08:29:21;99247.97;;;17.00;70.82
28008;BME280;15333;50.010;20.020;2022-10-16T08:32:21;99251.06;;;17.05;71.15
28008;BME280;15333;50.010;20.020;2022-10-16T08:35:22;99243.06;;;17.23;69.88
28008;BME280;15333;50.010;20.020;2022-10-16T08:38:23;99248.75;;;17.20;70.68
28008;BME280;15333;50.010;20.020;2022-10-16T08:48:11;99258.72;;;17.76;68.91
28008;BME280;15333;50.010;20.020;2022-10-16T08:51:23;99253.34;;;17.93;68.60
28008;BME280;15333;50.010;20.020;2022-10-16T08:54:43;99259.97;;;18.26;64.00
28008;BME280;15333;50.010;20.020;2022-10-16T08:57:46;99260.28;;;18.68;64.50
28008;BME280;15333;50.010;20.020;2022-10-16T09:00:50;99255.19;;;18.91;64.28
28008;BME280;15333;50.010;20.020;2022-10-16T09:04:03;99255.66;;;19.30;62.90
28008;BME280;15333;50.010;20.020;2022-10-16T09:21:09;99264.91;;;20.71;54.28
28008;BME280;15333;50.010;20.020;2022-10-16T09:24:14;99274.41;;;20.67;55.17
28008;BME280;15333;50.010;20.020;2022-10-16T09:27:16;99268.63;;;20.70;54.03
28008;BME280;15333;50.010;20.020;2022-10-16T09:30:19;99267.50;;;20.23;55.47
28008;BME280;15333;50.010;20.020;2022-10-16T09:33:24;99265.38;;;20.43;55.43
28008;BME280;15333;50.010;20.020;2022-10-16T09:36:29;99272.56;;;20.18;55.61
28008;BME280;15333;50.010;20.020;2022-10-16T09:39:54;99282.84;;;20.40;54.44
28008;BME280;15333;50.010;20.020;2022-10-16T09:43:59;99287.31;;;20.49;54.61
28008;BME280;15333;50.010;20.020;2022-10-16T09:46:39;99285.13;;;20.53;54.74
28008;BME280;15333;50.010;20.020;2022-10-16T09:49:54;99277.59;;;20.47;54.30
28008;BME280;15333;50.010;20.020;2022-10-16T09:53:11;99284.16;;;20.28;54.17
28008;BME280;15333;50.010;20.020;2022-10-16T09:56:25;99286.94;;;20.36;54.53
28008;BME280;15333;50.010;20.020;2022-10-16T09:59:26;99277.09;;;20.43;55.09
28008;BME280;15333;50.010;20.020;2022-10-16T10:02:36;99275.28;;;20.60;54.08
28008;BME280;15333;50.010;20.020;2022-10-16T10:05:39;99284.28;;;20.85;53.88
28008;BME280;15333;50.010;20.020;2022-10-16T10:08:40;99283.63;;;21.15;52.25
28008;BME280;15333;50.010;20.020;2022-10-16T10:11:54;99288.09;;;21.24;53.31
28008;BME280;15333;50.010;20.020;2022-10-16T10:14:56;99289.75;;;21.25;51.88
28008;BME280;15333;50.010;20.020;2022-10-16T10:17:58;99280.53;;;21.59;51.16
28008;BME280;15333;50.010;20.020;2022-10-16T10:21:01;99290.44;;;21.35;51.51
28008;BME280;15333;50.010;20.020;2022-10-16T10:24:02;99282.09;;;21.29;51.69
28008;BME280;15333;50.010;20.020;2022-10-16T10:27:15;99285.00;;;21.35;51.63
28008;BME280;15333;50.010;20.020;2022-10-16T10:41:08;99278.25;;;22.25;50.17
28008;BME280;15333;50.010;20.020;2022-10-16T10:47:46;99276.50;;;22.02;50.32
28008;BME280;15333;50.010;20.020;2022-10-16T10:51:01;99269.44;;;22.15;49.67
28008;BME280;15333;50.010;20.020;2022-10-16T10:57:41;99266.66;;;21.76;50.65
28008;BME280;15333;50.010;20.020;2022-10-16T11:07:40;99264.16;;;22.14;49.87
28008;BME280;15333;50.010;20.020;2022-10-16T11:17:23;99264.94;;;22.31;50.33
28008;BME280;15333;50.010;20.020;2022-10-16T11:20:29;99259.94;;;22.65;49.76
28008;BME280;15333;50.010;20.020;2022-10-16T11:23:42;99258.91;;;22.66;50.00
28008;BME280;15333;50.010;20.020;2022-10-16T11:26:46;99264.38;;;22.66;49.59
28008;BME280;15333;50.010;20.020;2022-10-16T11:30:00;99254.78;;;22.70;48.50
28008;BME280;15333;50.010;20.020;2022-10-16T11:36:25;99262.03;;;22.55;49.24
28008;BME280;15333;50.010;20.020;2022-10-16T11:39:30;99265.69;;;22.47;49.47
28008;BME280;15333;50.010;20.020;2022-10-16T11:42:37;99261.97;;;22.40;49.13
28008;BME280;15333;50.010;20.020;2022-10-16T11:45:49;99264.81;;;22.47;49.66
28008;BME280;15333;50.010;20.020;2022-10-16T11:49:09;99263.13;;;22.46;49.29
28008;BME280;15333;50.010;20.020;2022-10-16T11:55:44;99263.44;;;22.51;49.62
28008;BME280;15333;50.010;20.020;2022-10-16T11:58:56;99265.41;;;22.34;50.04
28008;BME280;15333;50.010;20.020;2022-10-16T12:02:24;99260.78;;;21.96;50.81
28008;BME280;15333;50.010;20.020;2022-10-16T12:05:40;99262.88;;;22.02;51.08
28008;BME280;15333;50.010;20.020;2022-10-16T12:08:49;99274.97;;;21.91;50.83
28008;BME280;15333;50.010;20.020;2022-10-16T12:11:51;99274.72;;;21.62;51.46
28008;BME280;15333;50.010;20.020;2022-10-16T12:15:15;99274.41;;;21.48;51.73
28008;BME280;15333;50.010;20.020;2022-10-16T12:18:22;99276.25;;;21.56;51.99
28008;BME280;15333;50.010;20.020;2022-10-16T12:21:30;99277.13;;;21.48;52.79
28008;BME280;15333;50.010;20.020;2022-10-16T12:24:37;99285.13;;;21.58;52.56
28008;BME280;15333;50.010;20.020;2022-10-16T12:27:38;99279.84;;;21.57;52.47
28008;BME280;15333;50.010;20.020;2022-10-16T12:30:40;99279.47;;;21.68;53.04
28008;BME280;15333;50.010;20.020;2022-10-16T12:33:56;99272.63;;;21.80;52.77
28008;BME280;15333;50.010;20.020;2022-10-16T12:37:09;99282.81;;;22.02;52.42
28008;BME280;15333;50.010;20.020;2022-10-16T12:40:23;99279.88;;;22.43;51.15
28008;BME280;15333;50.010;20.020;2022-10-16T12:49:37;99282.00;;;22.86;49.44
28008;BME280;15333;50.010;20.020;2022-10-16T12:52:40;99276.53;;;22.86;49.58
28008;BME280;15333;50.010;20.020;2022-10-16T13:09:29;99293.88;;;21.93;50.88
28008;BME280;15333;50.010;20.020;2022-10-16T13:12:51;99296.44;;;21.94;51.25
28008;BME280;15333;50.010;20.020;2022-10-16T13:16:11;99292.06;;;21.69;51.42
28008;BME280;15333;50.010;20.020;2022-10-16T13:19:32;99309.06;;;21.79;51.77
28008;BME280;15333;50.010;20.020;2022-10-16T13:22:55;99299.88;;;21.80;53.02
28008;BME280;15333;50.010;20.020;2022-10-16T13:29:21;99303.66;;;21.63;52.32
28008;BME280;15333;50.010;20.020;2022-10-16T13:32:23;99306.59;;;21.45;52.76
28008;BME280;15333;50.010;20.020;2022-10-16T13:35:27;99316.31;;;21.31;53.92
28008;BME280;15333;50.010;20.020;2022-10-16T13:38:31;99327.22;;;21.31;53.93
28008;BME280;15333;50.010;20.020;2022-10-16T13:41:35;99325.78;;;21.11;54.43
28008;BME280;15333;50.010;20.020;2022-10-16T13:44:42;99329.41;;;21.20;54.17
28008;BME280;15333;50.010;20.020;2022-10-16T13:47:43;99323.47;;;21.16;54.22
28008;BME280;15333;50.010;20.020;2022-10-16T13:50:45;99329.91;;;21.07;55.24
28008;BME280;15333;50.010;20.020;2022-10-16T13:53:46;99324.09;;;20.94;55.61
28008;BME280;15333;50.010;20.020;2022-10-16T13:56:47;99329.69;;;20.84;56.17
28008;BME280;15333;50.010;20.020;2022-10-16T13:59:48;99337.63;;;20.61;57.76
28008;BME280;15333;50.010;20.020;2022-10-16T14:02:57;99335.94;;;20.52;57.80
28008;BME280;15333;50.010;20.020;2022-10-16T14:06:02;99345.03;;;20.35;58.14
28008;BME280;15333;50.010;20.020;2022-10-16T14:09:09;99334.88;;;20.37;58.72
28008;BME280;15333;50.010;20.020;2022-10-16T14:12:13;99347.38;;;20.30;59.45
28008;BME280;15333;50.010;20.020;2022-10-16T14:15:18;99346.34;;;20.23;59.80
28008;BME280;15333;50.010;20.020;2022-10-16T14:18:22;99343.22;;;20.18;59.81
28008;BME280;15333;50.010;20.020;2022-10-16T14:21:24;99342.16;;;20.03;60.41
28008;BME280;15333;50.010;20.020;2022-10-16T14:24:34;99341.41;;;19.92;60.82
28008;BME280;15333;50.010;20.020;2022-10-16T14:27:36;99336.63;;;19.86;61.49
28008;BME280;15333;50.010;20.020;2022-10-16T14:30:37;99338.59;;;19.76;61.78
28008;BME280;15333;50.010;20.020;2022-10-16T14:33:49;99338.94;;;19.73;62.29
28008;BME280;15333;50.010;20.020;2022-10-16T14:36:50;99344.25;;;19.57;62.87
28008;BME280;15333;50.010;20.020;2022-10-16T14:39:52;99343.44;;;19.39;63.16
28008;BME280;15333;50.010;20.020;2022-10-16T14:42:53;99338.25;;;19.28;64.02
28008;BME280;15333;50.010;20.020;2022-10-16T14:45:56;99340.50;;;19.14;64.39
28008;BME280;15333;50.010;20.020;2022-10-16T14:49:18;99331.00;;;19.10;65.10
28008;BME280;15333;50.010;20.020;2022-10-16T14:52:21;99341.84;;;18.93;65.75
28008;BME280;15333;50.010;20.020;2022-10-16T14:55:21;99340.00;;;18.93;66.05
28008;BME280;15333;50.010;20.020;2022-10-16T14:58:23;99333.47;;;18.86;66.60
28008;BME280;15333;50.010;20.020;2022-10-16T15:01:25;99331.53;;;18.78;67.03
28008;BME280;15333;50.010;20.020;2022-10-16T15:04:26;99332.78;;;18.66;67.15
28008;BME280;15333;50.010;20.020;2022-10-16T15:07:27;99326.28;;;18.50;67.59
28008;BME280;15333;50.010;20.020;2022-10-16T15:10:28;99344.94;;;18.35;68.25
28008;BME280;15333;50.010;20.020;2022-10-16T15:13:30;99354.91;;;18.34;68.49
28008;BME280;15333;50.010;20.020;2022-10-16T15:16:31;99362.88;;;18.18;69.32
28008;BME280;15333;50.010;20.020;2022-10-16T15:19:32;99365.25;;;18.21;69.81
28008;BME280;15333;50.010;20.020;2022-10-16T15:22:34;99360.34;;;18.07;69.68
28008;BME280;15333;50.010;20.020;2022-10-16T15:25:38;99362.97;;;17.89;70.24
28008;BME280;15333;50.010;20.020;2022-10-16T15:28:42;99374.13;;;17.77;71.76
28008;BME280;15333;50.010;20.020;2022-10-16T15:31:43;99374.03;;;17.69;72.55
28008;BME280;15333;50.010;20.020;2022-10-16T15:34:45;99376.28;;;17.64;72.30
28008;BME280;15333;50.010;20.020;2022-10-16T15:37:47;99379.03;;;17.44;73.85
28008;BME280;15333;50.010;20.020;2022-10-16T15:40:49;99372.75;;;17.34;73.74
28008;BME280;15333;50.010;20.020;2022-10-16T15:43:51;99389.88;;;17.25;73.74
28008;BME280;15333;50.010;20.020;2022-10-16T15:46:54;99388.59;;;17.10;74.61
28008;BME280;15333;50.010;20.020;2022-10-16T15:49:55;99394.81;;;16.91;74.94
28008;BME280;15333;50.010;20.020;2022-10-16T15:52:56;99392.53;;;16.67;75.45
28008;BME280;15333;50.010;20.020;2022-10-16T15:55:56;99392.19;;;16.51;76.21
28008;BME280;15333;50.010;20.020;2022-10-16T15:58:58;99385.91;;;16.41;76.60
28008;BME280;15333;50.010;20.020;2022-10-16T16:01:59;99387.91;;;16.39;76.79
28008;BME280;15333;50.010;20.020;2022-10-16T16:05:00;99394.72;;;16.33;77.45
28008;BME280;15333;50.010;20.020;2022-10-16T16:08:02;99406.63;;;16.31;78.91
28008;BME280;15333;50.010;20.020;2022-10-16T16:11:04;99397.25;;;16.25;78.05
28008;BME280;15333;50.010;20.020;2022-10-16T16:14:06;99389.81;;;16.18;78.32
28008;BME280;15333;50.010;20.020;2022-10-16T16:17:07;99393.75;;;16.14;78.61
28008;BME280;15333;50.010;20.020;2022-10-16T16:20:09;99382.16;;;16.23;77.95
28008;BME280;15333;50.010;20.020;2022-10-16T16:23:10;99390.69;;;16.28;77.62
28008;BME280;15333;50.010;20.020;2022-10-16T16:26:14;99399.56;;;16.39;76.55
28008;BME280;15333;50.010;20.020;2022-10-16T16:29:15;99397.16;;;16.56;75.03
28008;BME280;15333;50.010;20.020;2022-10-16T16:32:17;99408.69;;;16.58;74.47
28008;BME280;15333;50.010;20.020;2022-10-16T16:35:18;99410.00;;;16.63;74.11
28008;BME280;15333;50.010;20.020;2022-10-16T16:38:18;99420.38;;;16.58;73.64
28008;BME280;15333;50.010;20.020;2022-10-16T16:41:22;99425.16;;;16.45;74.05
28008;BME280;15333;50.010;20.020;2022-10-16T16:44:23;99427.88;;;16.45;73.76
28008;BME280;15333;50.010;20.020;2022-10-16T16:47:24;99433.69;;;16.40;74.14
28008;BME280;15333;50.010;20.020;2022-10-16T16:50:25;99437.66;;;16.36;74.21
28008;BME280;15333;50.010;20.020;2022-10-16T16:53:26;99437.06;;;16.33;73.95
28008;BME280;15333;50.010;20.020;2022-10-16T16:56:27;99437.34;;;16.30;74.39
28008;BME280;15333;50.010;20.020;2022-10-16T16:59:28;99446.44;;;16.29;74.13
28008;BME280;15333;50.010;20.020;2022-10-16T17:02:33;99448.44;;;16.27;74.16
28008;BME280;15333;50.010;20.020;2022-10-16T17:05:34;99453.50;;;16.20;74.47
28008;BME280;15333;50.010;20.020;2022-10-16T17:08:35;99458.41;;;16.05;74.55
28008;BME280;15333;50.010;20.020;2022-10-16T17:11:36;99465.25;;;16.10;74.19
28008;BME280;15333;50.010;20.020;2022-10-16T17:14:37;99462.81;;;16.06;73.57
28008;BME280;15333;50.010;20.020;2022-10-16T17:17:38;99454.88;;;16.15;72.85
28008;BME280;15333;50.010;20.020;2022-10-16T17:20:39;99465.16;;;16.21;72.41
28008;BME280;15333;50.010;20.020;2022-10-16T17:23:41;99462.88;;;16.16;72.68
28008;BME280;15333;50.010;20.020;2022-10-16T17:26:41;99480.19;;;16.14;72.69
28008;BME280;15333;50.010;20.020;2022-10-16T17:29:51;99479.00;;;16.06;73.15
28008;BME280;15333;50.010;20.020;2022-10-16T17:32:52;99481.00;;;16.04;73.23
28008;BME280;15333;50.010;20.020;2022-10-16T17:35:53;99479.63;;;15.89;73.80
28008;BME280;15333;50.010;20.020;2022-10-16T17:38:54;99494.91;;;15.79;74.18
28008;BME280;15333;50.010;20.020;2022-10-16T17:41:55;99500.63;;;15.65;75.30